Sky Ever — DSQX9 — position and weather

sailwx.info

Track history (hours):
 
Tides and Currents Weather Stations Pressure Air Temp Water Temp Dewpoint Dewpoint Depression Visibility Wind Speed Wind Dir Waves Ship Positions

Sky Ever

Last reported at 2018-Apr-19 13:30 UTC. Time now 2018-Apr-19 13:35 UTC.
Position N 34°36' E 135°03'.

Length 76 m; draft 4.7 m.

Type: Cargo ship. MMSI: 441751000.

Date/timePositionNaut miles runAvg speedWind from/ knotsBaromVisibWave heightAir tempDewpointWater temp
2018-Apr-19 13:30N 34°36' E 135°03'4 8.9
2018-Apr-19 13:00N 34°36' E 135°09'4 8.8
2018-Apr-19 12:30N 34°36' E 135°14'4 8.5
2018-Apr-19 12:00N 34°36' E 135°19'4 8.2
2018-Apr-19 11:30N 34°36' E 135°24'2 4.5
2018-Apr-19 11:00N 34°35' E 135°27'0 0.0
2018-Apr-19 10:27N 34°35' E 135°27'0 0.0
2018-Apr-19 10:00N 34°35' E 135°27'0 0.0
2018-Apr-19 09:30N 34°35' E 135°27'0 0.0
2018-Apr-19 08:51N 34°35' E 135°27'0 0.0
2018-Apr-19 08:30N 34°35' E 135°27'0 0.0
2018-Apr-19 07:57N 34°35' E 135°27'0 0.0
2018-Apr-19 07:27N 34°35' E 135°27'0 0.0
2018-Apr-19 07:00N 34°35' E 135°27'0 0.0
2018-Apr-19 06:30N 34°35' E 135°27'0 0.0
2018-Apr-19 05:57N 34°35' E 135°27'0 0.0
2018-Apr-19 05:30N 34°35' E 135°27'0 0.0
2018-Apr-19 05:00N 34°35' E 135°27'0 0.0
2018-Apr-19 04:30N 34°35' E 135°27'0 0.0
2018-Apr-19 03:57N 34°35' E 135°27'0 0.0
2018-Apr-19 03:30N 34°35' E 135°27'0 0.0
2018-Apr-19 03:00N 34°35' E 135°27'0 0.0
2018-Apr-19 02:30N 34°35' E 135°27'0 0.0
2018-Apr-19 01:57N 34°35' E 135°27'0 0.0
2018-Apr-19 01:30N 34°35' E 135°27'0 0.0
2018-Apr-19 01:00N 34°35' E 135°27'0 0.0
2018-Apr-19 00:30N 34°35' E 135°27'0 0.0
2018-Apr-19 00:00N 34°35' E 135°27'0 0.0
2018-Apr-18 23:30N 34°35' E 135°27'0 0.0
2018-Apr-18 23:00N 34°35' E 135°27'0 0.0
2018-Apr-18 22:30N 34°35' E 135°27'0 0.0
2018-Apr-18 21:55N 34°35' E 135°27'1 2.7
2018-Apr-18 21:30N 34°35' E 135°26'2 4.3
2018-Apr-18 20:59N 34°36' E 135°23'0 0.2
2018-Apr-18 20:29N 34°36' E 135°23'0 0.0
2018-Apr-18 19:59N 34°36' E 135°23'0 0.0
2018-Apr-18 19:29N 34°36' E 135°23'0 0.0
2018-Apr-18 18:59N 34°36' E 135°23'0 0.1
2018-Apr-18 18:29N 34°36' E 135°23'0 0.0
2018-Apr-18 17:59N 34°36' E 135°23'0 0.1
2018-Apr-18 17:29N 34°36' E 135°23'0 0.0
2018-Apr-18 16:59N 34°36' E 135°23'0 0.0
2018-Apr-18 16:29N 34°36' E 135°23'0 0.0
2018-Apr-18 15:59N 34°36' E 135°23'0 0.0
2018-Apr-18 15:29N 34°36' E 135°23'0 0.0
2018-Apr-18 14:59N 34°36' E 135°23'0 0.0
2018-Apr-18 14:29N 34°36' E 135°23'0 0.0
2018-Apr-18 13:59N 34°36' E 135°23'0 0.0
2018-Apr-18 13:29N 34°36' E 135°23'0 0.0
2018-Apr-18 12:59N 34°36' E 135°23'0 0.0
2018-Apr-18 12:29N 34°36' E 135°23'0 0.0
2018-Apr-18 11:59N 34°36' E 135°23'0 0.0
2018-Apr-18 11:29N 34°36' E 135°23'0 0.0
2018-Apr-18 10:59N 34°36' E 135°23'0 0.1
2018-Apr-18 10:29N 34°36' E 135°23'0 0.1
2018-Apr-18 09:59N 34°36' E 135°23'0 0.0
2018-Apr-18 09:29N 34°36' E 135°23'0 0.0
2018-Apr-18 08:59N 34°36' E 135°23'0 0.0
2018-Apr-18 08:29N 34°36' E 135°23'0 0.0
2018-Apr-18 07:59N 34°36' E 135°23'0 0.0
2018-Apr-18 07:29N 34°36' E 135°23'0 0.0
2018-Apr-18 06:59N 34°36' E 135°23'0 0.0
2018-Apr-18 06:26N 34°36' E 135°23'0 0.2
2018-Apr-18 06:00N 34°36' E 135°23'4 7.9
2018-Apr-18 05:30N 34°34' E 135°19'4 8.6
2018-Apr-18 05:00N 34°31' E 135°15'4 8.1
2018-Apr-18 04:30N 34°28' E 135°11'4 7.7
2018-Apr-18 04:00N 34°26' E 135°08'4 7.6
2018-Apr-18 03:30N 34°23' E 135°04'4 8.2
2018-Apr-18 03:00N 34°20' E 135°01'4 8.3
2018-Apr-18 02:30N 34°16' E 134°59'4 8.4
2018-Apr-18 02:00N 34°12' E 134°59'4 8.2
2018-Apr-18 01:30N 34°08' E 134°60'4 8.4
2018-Apr-18 01:00N 34°04' E 135°01'4 8.3
2018-Apr-18 00:30N 33°60' E 135°01'4 8.0
2018-Apr-18 00:00N 33°56' E 135°02'4 7.6
2018-Apr-17 23:27N 33°52' E 135°02'125 6.1
2018-Apr-17 02:56N 34°44' E 137°19'0 0.0
2018-Apr-16 22:57N 34°43' E 137°19'0 0.0
2018-Apr-16 22:30N 34°44' E 137°19'2 0.1
2018-Apr-15 21:32N 34°44' E 137°16'0 7.0
2018-Apr-15 21:30N 34°44' E 137°16'3 0.5
2018-Apr-15 15:23N 34°44' E 137°13'2 4.6
2018-Apr-15 14:57N 34°43' E 137°11'4 8.3
2018-Apr-15 14:30N 34°42' E 137°07'6 7.8
2018-Apr-15 13:42N 34°38' E 137°00'107 5.0
2018-Apr-14 16:25N 33°47' E 135°07'3 5.2
2018-Apr-14 15:45N 33°50' E 135°04'2 5.6
2018-Apr-14 15:21N 33°51' E 135°03'2 4.8
2018-Apr-14 15:00N 33°53' E 135°02'2 4.9
2018-Apr-14 14:30N 33°55' E 135°01'2 4.9
2018-Apr-14 14:00N 33°58' E 135°01'2 4.5
2018-Apr-14 13:30N 33°60' E 135°00'2 4.8
2018-Apr-14 13:00N 34°02' E 135°00'3 5.3
2018-Apr-14 12:30N 34°05' E 134°60'3 5.8
2018-Apr-14 12:00N 34°08' E 134°59'3 6.8
2018-Apr-14 11:30N 34°11' E 134°59'4 7.2
2018-Apr-14 11:00N 34°15' E 134°59'3 6.5
2018-Apr-14 10:30N 34°18' E 134°58'3 6.9
2018-Apr-14 10:00N 34°21' E 135°00'4 7.8
2018-Apr-14 09:30N 34°25' E 135°01'4 7.7
2018-Apr-14 09:00N 34°28' E 135°03'4 7.4
2018-Apr-14 08:30N 34°32' E 135°04'3 6.8
2018-Apr-14 08:00N 34°35' E 135°04'4 7.6
2018-Apr-14 07:30N 34°37' E 134°60'5 9.7
2018-Apr-14 07:00N 34°35' E 134°54'5 9.4
2018-Apr-14 06:30N 34°33' E 134°49'4 8.7
2018-Apr-14 06:00N 34°32' E 134°44'4 8.4
2018-Apr-14 05:30N 34°30' E 134°40'4 8.1
2018-Apr-14 05:00N 34°28' E 134°35'4 7.8
2018-Apr-14 04:30N 34°27' E 134°31'4 7.7
2018-Apr-14 03:59N 34°25' E 134°26'87 7.4
2018-Apr-13 16:16N 34°01' E 132°46'0 0.1
2018-Apr-13 14:10N 34°01' E 132°46'1 7.2
2018-Apr-13 14:00N 34°00' E 132°45'4 8.2
2018-Apr-13 13:30N 33°57' E 132°42'4 8.7
2018-Apr-13 12:59N 33°54' E 132°38'8 8.7
2018-Apr-13 12:07N 33°49' E 132°31'2 9.0
2018-Apr-13 11:56N 33°48' E 132°29'11 8.8
2018-Apr-13 10:45N 33°44' E 132°18'2 8.9
2018-Apr-13 10:28N 33°43' E 132°15'5 9.0
2018-Apr-13 09:53N 33°41' E 132°09'4 8.5
2018-Apr-13 09:28N 33°42' E 132°05'5 8.3
2018-Apr-13 08:53N 33°43' E 131°59'3 8.0
2018-Apr-13 08:30N 33°44' E 131°56'4 7.8
2018-Apr-13 08:00N 33°44' E 131°51'4 7.8
2018-Apr-13 07:28N 33°45' E 131°46'4 8.0
2018-Apr-13 06:59N 33°46' E 131°42'4 7.9
2018-Apr-13 06:30N 33°47' E 131°37'4 7.9
2018-Apr-13 06:00N 33°47' E 131°32'4 8.0
2018-Apr-13 05:30N 33°48' E 131°28'4 8.1
2018-Apr-13 05:00N 33°49' E 131°23'4 8.2
2018-Apr-13 04:30N 33°50' E 131°18'4 8.4
2018-Apr-13 04:00N 33°51' E 131°13'4 8.8
2018-Apr-13 03:30N 33°53' E 131°09'5 8.9
2018-Apr-13 03:00N 33°56' E 131°04'4 8.5
2018-Apr-13 02:30N 33°58' E 131°00'4 7.9
2018-Apr-13 01:59N 33°56' E 130°56'2 5.1
2018-Apr-13 01:30N 33°55' E 130°54'3 6.8
2018-Apr-13 01:00N 33°58' E 130°52'4 7.8
2018-Apr-13 00:30N 34°02' E 130°51'4 8.5
2018-Apr-13 00:00N 34°04' E 130°47'4 8.3
2018-Apr-12 23:30N 34°07' E 130°43'4 8.3
2018-Apr-12 23:00N 34°09' E 130°38'4 8.1
2018-Apr-12 22:30N 34°11' E 130°34'4 8.0
2018-Apr-12 22:00N 34°14' E 130°30'4 8.0
2018-Apr-12 21:30N 34°16' E 130°26'4 7.9
2018-Apr-12 21:00N 34°18' E 130°22'4 7.8
2018-Apr-12 20:30N 34°20' E 130°18'4 7.7
2018-Apr-12 20:00N 34°22' E 130°14'3 6.5
2018-Apr-12 19:30N 34°24' E 130°11'4 7.7
2018-Apr-12 18:59N 34°21' E 130°14'2 4.2
2018-Apr-12 18:30N 34°22' E 130°12'10 7.9
2018-Apr-12 17:16N 34°26' E 130°02'3 8.3
2018-Apr-12 16:50N 34°29' E 129°58'3 8.6
2018-Apr-12 16:29N 34°31' E 129°56'14 8.5
2018-Apr-12 14:51N 34°39' E 129°42'32 8.6
2018-Apr-12 11:10N 34°57' E 129°10'4 8.7
2018-Apr-12 10:41N 34°59' E 129°06'2 8.6
2018-Apr-12 10:28N 35°00' E 129°04'3 0.9
2018-Apr-12 06:50N 35°04' E 129°03'0 0.0
2018-Apr-12 06:08N 35°04' E 129°03'0 0.0
2018-Apr-12 02:26N 35°04' E 129°03'  
Track history (hours):
 
Tides and Currents Weather Stations Pressure Air Temp Water Temp Dewpoint Dewpoint Depression Visibility Wind Speed Wind Dir Waves Ship Positions

Sky Ever

Last reported at 2018-Apr-19 13:30 UTC. Time now 2018-Apr-19 13:35 UTC.
Position N 34°36' E 135°03'.

Length 76 m; draft 4.7 m.

Type: Cargo ship. MMSI: 441751000.

Date/timePositionNaut miles runAvg speedWind from/ knotsBaromVisibWave heightAir tempDewpointWater temp
2018-Apr-19 13:30N 34°36' E 135°03'4 8.9
2018-Apr-19 13:00N 34°36' E 135°09'4 8.8
2018-Apr-19 12:30N 34°36' E 135°14'4 8.5
2018-Apr-19 12:00N 34°36' E 135°19'4 8.2
2018-Apr-19 11:30N 34°36' E 135°24'2 4.5
2018-Apr-19 11:00N 34°35' E 135°27'0 0.0
2018-Apr-19 10:27N 34°35' E 135°27'0 0.0
2018-Apr-19 10:00N 34°35' E 135°27'0 0.0
2018-Apr-19 09:30N 34°35' E 135°27'0 0.0
2018-Apr-19 08:51N 34°35' E 135°27'0 0.0
2018-Apr-19 08:30N 34°35' E 135°27'0 0.0
2018-Apr-19 07:57N 34°35' E 135°27'0 0.0
2018-Apr-19 07:27N 34°35' E 135°27'0 0.0
2018-Apr-19 07:00N 34°35' E 135°27'0 0.0
2018-Apr-19 06:30N 34°35' E 135°27'0 0.0
2018-Apr-19 05:57N 34°35' E 135°27'0 0.0
2018-Apr-19 05:30N 34°35' E 135°27'0 0.0
2018-Apr-19 05:00N 34°35' E 135°27'0 0.0
2018-Apr-19 04:30N 34°35' E 135°27'0 0.0
2018-Apr-19 03:57N 34°35' E 135°27'0 0.0
2018-Apr-19 03:30N 34°35' E 135°27'0 0.0
2018-Apr-19 03:00N 34°35' E 135°27'0 0.0
2018-Apr-19 02:30N 34°35' E 135°27'0 0.0
2018-Apr-19 01:57N 34°35' E 135°27'0 0.0
2018-Apr-19 01:30N 34°35' E 135°27'0 0.0
2018-Apr-19 01:00N 34°35' E 135°27'0 0.0
2018-Apr-19 00:30N 34°35' E 135°27'0 0.0
2018-Apr-19 00:00N 34°35' E 135°27'0 0.0
2018-Apr-18 23:30N 34°35' E 135°27'0 0.0
2018-Apr-18 23:00N 34°35' E 135°27'0 0.0
2018-Apr-18 22:30N 34°35' E 135°27'0 0.0
2018-Apr-18 21:55N 34°35' E 135°27'1 2.7
2018-Apr-18 21:30N 34°35' E 135°26'2 4.3
2018-Apr-18 20:59N 34°36' E 135°23'0 0.2
2018-Apr-18 20:29N 34°36' E 135°23'0 0.0
2018-Apr-18 19:59N 34°36' E 135°23'0 0.0
2018-Apr-18 19:29N 34°36' E 135°23'0 0.0
2018-Apr-18 18:59N 34°36' E 135°23'0 0.1
2018-Apr-18 18:29N 34°36' E 135°23'0 0.0
2018-Apr-18 17:59N 34°36' E 135°23'0 0.1
2018-Apr-18 17:29N 34°36' E 135°23'0 0.0
2018-Apr-18 16:59N 34°36' E 135°23'0 0.0
2018-Apr-18 16:29N 34°36' E 135°23'0 0.0
2018-Apr-18 15:59N 34°36' E 135°23'0 0.0
2018-Apr-18 15:29N 34°36' E 135°23'0 0.0
2018-Apr-18 14:59N 34°36' E 135°23'0 0.0
2018-Apr-18 14:29N 34°36' E 135°23'0 0.0
2018-Apr-18 13:59N 34°36' E 135°23'0 0.0
2018-Apr-18 13:29N 34°36' E 135°23'0 0.0
2018-Apr-18 12:59N 34°36' E 135°23'0 0.0
2018-Apr-18 12:29N 34°36' E 135°23'0 0.0
2018-Apr-18 11:59N 34°36' E 135°23'0 0.0
2018-Apr-18 11:29N 34°36' E 135°23'0 0.0
2018-Apr-18 10:59N 34°36' E 135°23'0 0.1
2018-Apr-18 10:29N 34°36' E 135°23'0 0.1
2018-Apr-18 09:59N 34°36' E 135°23'0 0.0
2018-Apr-18 09:29N 34°36' E 135°23'0 0.0
2018-Apr-18 08:59N 34°36' E 135°23'0 0.0
2018-Apr-18 08:29N 34°36' E 135°23'0 0.0
2018-Apr-18 07:59N 34°36' E 135°23'0 0.0
2018-Apr-18 07:29N 34°36' E 135°23'0 0.0
2018-Apr-18 06:59N 34°36' E 135°23'0 0.0
2018-Apr-18 06:26N 34°36' E 135°23'0 0.2
2018-Apr-18 06:00N 34°36' E 135°23'4 7.9
2018-Apr-18 05:30N 34°34' E 135°19'4 8.6
2018-Apr-18 05:00N 34°31' E 135°15'4 8.1
2018-Apr-18 04:30N 34°28' E 135°11'4 7.7
2018-Apr-18 04:00N 34°26' E 135°08'4 7.6
2018-Apr-18 03:30N 34°23' E 135°04'4 8.2
2018-Apr-18 03:00N 34°20' E 135°01'4 8.3
2018-Apr-18 02:30N 34°16' E 134°59'4 8.4
2018-Apr-18 02:00N 34°12' E 134°59'4 8.2
2018-Apr-18 01:30N 34°08' E 134°60'4 8.4
2018-Apr-18 01:00N 34°04' E 135°01'4 8.3
2018-Apr-18 00:30N 33°60' E 135°01'4 8.0
2018-Apr-18 00:00N 33°56' E 135°02'4 7.6
2018-Apr-17 23:27N 33°52' E 135°02'125 6.1
2018-Apr-17 02:56N 34°44' E 137°19'0 0.0
2018-Apr-16 22:57N 34°43' E 137°19'0 0.0
2018-Apr-16 22:30N 34°44' E 137°19'2 0.1
2018-Apr-15 21:32N 34°44' E 137°16'0 7.0
2018-Apr-15 21:30N 34°44' E 137°16'3 0.5
2018-Apr-15 15:23N 34°44' E 137°13'2 4.6
2018-Apr-15 14:57N 34°43' E 137°11'4 8.3
2018-Apr-15 14:30N 34°42' E 137°07'6 7.8
2018-Apr-15 13:42N 34°38' E 137°00'107 5.0
2018-Apr-14 16:25N 33°47' E 135°07'3 5.2
2018-Apr-14 15:45N 33°50' E 135°04'2 5.6
2018-Apr-14 15:21N 33°51' E 135°03'2 4.8
2018-Apr-14 15:00N 33°53' E 135°02'2 4.9
2018-Apr-14 14:30N 33°55' E 135°01'2 4.9
2018-Apr-14 14:00N 33°58' E 135°01'2 4.5
2018-Apr-14 13:30N 33°60' E 135°00'2 4.8
2018-Apr-14 13:00N 34°02' E 135°00'3 5.3
2018-Apr-14 12:30N 34°05' E 134°60'3 5.8
2018-Apr-14 12:00N 34°08' E 134°59'3 6.8
2018-Apr-14 11:30N 34°11' E 134°59'4 7.2
2018-Apr-14 11:00N 34°15' E 134°59'3 6.5
2018-Apr-14 10:30N 34°18' E 134°58'3 6.9
2018-Apr-14 10:00N 34°21' E 135°00'4 7.8
2018-Apr-14 09:30N 34°25' E 135°01'4 7.7
2018-Apr-14 09:00N 34°28' E 135°03'4 7.4
2018-Apr-14 08:30N 34°32' E 135°04'3 6.8
2018-Apr-14 08:00N 34°35' E 135°04'4 7.6
2018-Apr-14 07:30N 34°37' E 134°60'5 9.7
2018-Apr-14 07:00N 34°35' E 134°54'5 9.4
2018-Apr-14 06:30N 34°33' E 134°49'4 8.7
2018-Apr-14 06:00N 34°32' E 134°44'4 8.4
2018-Apr-14 05:30N 34°30' E 134°40'4 8.1
2018-Apr-14 05:00N 34°28' E 134°35'4 7.8
2018-Apr-14 04:30N 34°27' E 134°31'4 7.7
2018-Apr-14 03:59N 34°25' E 134°26'87 7.4
2018-Apr-13 16:16N 34°01' E 132°46'0 0.1
2018-Apr-13 14:10N 34°01' E 132°46'1 7.2
2018-Apr-13 14:00N 34°00' E 132°45'4 8.2
2018-Apr-13 13:30N 33°57' E 132°42'4 8.7
2018-Apr-13 12:59N 33°54' E 132°38'8 8.7
2018-Apr-13 12:07N 33°49' E 132°31'2 9.0
2018-Apr-13 11:56N 33°48' E 132°29'11 8.8
2018-Apr-13 10:45N 33°44' E 132°18'2 8.9
2018-Apr-13 10:28N 33°43' E 132°15'5 9.0
2018-Apr-13 09:53N 33°41' E 132°09'4 8.5
2018-Apr-13 09:28N 33°42' E 132°05'5 8.3
2018-Apr-13 08:53N 33°43' E 131°59'3 8.0
2018-Apr-13 08:30N 33°44' E 131°56'4 7.8
2018-Apr-13 08:00N 33°44' E 131°51'4 7.8
2018-Apr-13 07:28N 33°45' E 131°46'4 8.0
2018-Apr-13 06:59N 33°46' E 131°42'4 7.9
2018-Apr-13 06:30N 33°47' E 131°37'4 7.9
2018-Apr-13 06:00N 33°47' E 131°32'4 8.0
2018-Apr-13 05:30N 33°48' E 131°28'4 8.1
2018-Apr-13 05:00N 33°49' E 131°23'4 8.2
2018-Apr-13 04:30N 33°50' E 131°18'4 8.4
2018-Apr-13 04:00N 33°51' E 131°13'4 8.8
2018-Apr-13 03:30N 33°53' E 131°09'5 8.9
2018-Apr-13 03:00N 33°56' E 131°04'4 8.5
2018-Apr-13 02:30N 33°58' E 131°00'4 7.9
2018-Apr-13 01:59N 33°56' E 130°56'2 5.1
2018-Apr-13 01:30N 33°55' E 130°54'3 6.8
2018-Apr-13 01:00N 33°58' E 130°52'4 7.8
2018-Apr-13 00:30N 34°02' E 130°51'4 8.5
2018-Apr-13 00:00N 34°04' E 130°47'4 8.3
2018-Apr-12 23:30N 34°07' E 130°43'4 8.3
2018-Apr-12 23:00N 34°09' E 130°38'4 8.1
2018-Apr-12 22:30N 34°11' E 130°34'4 8.0
2018-Apr-12 22:00N 34°14' E 130°30'4 8.0
2018-Apr-12 21:30N 34°16' E 130°26'4 7.9
2018-Apr-12 21:00N 34°18' E 130°22'4 7.8
2018-Apr-12 20:30N 34°20' E 130°18'4 7.7
2018-Apr-12 20:00N 34°22' E 130°14'3 6.5
2018-Apr-12 19:30N 34°24' E 130°11'4 7.7
2018-Apr-12 18:59N 34°21' E 130°14'2 4.2
2018-Apr-12 18:30N 34°22' E 130°12'10 7.9
2018-Apr-12 17:16N 34°26' E 130°02'3 8.3
2018-Apr-12 16:50N 34°29' E 129°58'3 8.6
2018-Apr-12 16:29N 34°31' E 129°56'14 8.5
2018-Apr-12 14:51N 34°39' E 129°42'32 8.6
2018-Apr-12 11:10N 34°57' E 129°10'4 8.7
2018-Apr-12 10:41N 34°59' E 129°06'2 8.6
2018-Apr-12 10:28N 35°00' E 129°04'3 0.9
2018-Apr-12 06:50N 35°04' E 129°03'0 0.0
2018-Apr-12 06:08N 35°04' E 129°03'0 0.0
2018-Apr-12 02:26N 35°04' E 129°03'  

Dump ship's entire track history